sensor_id;sensor_type;location;lat;lon;timestamp;pressure;altitude;pressure_sealevel;temperature;humidity
72802;BME280;61891;55.818;37.084;2023-06-26T00:02:23;99421.63;;;17.12;54.49
72802;BME280;61891;55.818;37.084;2023-06-26T00:04:49;99429.47;;;17.13;54.70
72802;BME280;61891;55.818;37.084;2023-06-26T00:07:20;99398.56;;;16.97;54.87
72802;BME280;61891;55.818;37.084;2023-06-26T00:09:46;99419.56;;;17.14;54.64
72802;BME280;61891;55.818;37.084;2023-06-26T00:12:12;99421.63;;;17.12;55.66
72802;BME280;61891;55.818;37.084;2023-06-26T00:14:38;99390.75;;;16.89;54.83
72802;BME280;61891;55.818;37.084;2023-06-26T00:17:04;99415.66;;;17.03;55.12
72802;BME280;61891;55.818;37.084;2023-06-26T00:19:30;99399.59;;;16.83;55.16
72802;BME280;61891;55.818;37.084;2023-06-26T00:21:56;99408.47;;;16.84;54.99
72802;BME280;61891;55.818;37.084;2023-06-26T00:24:21;99367.66;;;16.55;55.17
72802;BME280;61891;55.818;37.084;2023-06-26T00:26:48;99421.44;;;16.87;55.53
72802;BME280;61891;55.818;37.084;2023-06-26T00:29:14;99417.94;;;16.86;55.18
72802;BME280;61891;55.818;37.084;2023-06-26T00:31:39;99417.09;;;16.86;55.31
72802;BME280;61891;55.818;37.084;2023-06-26T00:34:06;99413.00;;;16.83;56.23
72802;BME280;61891;55.818;37.084;2023-06-26T00:36:31;99416.28;;;16.79;55.44
72802;BME280;61891;55.818;37.084;2023-06-26T00:38:59;99397.94;;;16.69;55.28
72802;BME280;61891;55.818;37.084;2023-06-26T00:41:30;99361.06;;;16.51;55.34
72802;BME280;61891;55.818;37.084;2023-06-26T00:43:56;99397.13;;;16.68;55.40
72802;BME280;61891;55.818;37.084;2023-06-26T00:46:22;99385.81;;;16.66;55.74
72802;BME280;61891;55.818;37.084;2023-06-26T00:48:52;99415.47;;;16.71;55.58
72802;BME280;61891;55.818;37.084;2023-06-26T00:51:18;99360.22;;;16.37;55.94
72802;BME280;61891;55.818;37.084;2023-06-26T00:53:44;99414.59;;;16.64;56.18
72802;BME280;61891;55.818;37.084;2023-06-26T00:56:10;99415.00;;;16.61;55.98
72802;BME280;61891;55.818;37.084;2023-06-26T00:58:37;99408.00;;;16.60;56.08
72802;BME280;61891;55.818;37.084;2023-06-26T01:01:03;99408.22;;;16.59;56.20
72802;BME280;61891;55.818;37.084;2023-06-26T01:03:31;99398.72;;;16.56;56.26
72802;BME280;61891;55.818;37.084;2023-06-26T01:05:58;99385.34;;;16.43;56.50
72802;BME280;61891;55.818;37.084;2023-06-26T01:08:25;99398.31;;;16.53;56.61
72802;BME280;61891;55.818;37.084;2023-06-26T01:10:51;99399.97;;;16.54;56.45
72802;BME280;61891;55.818;37.084;2023-06-26T01:13:18;99386.16;;;16.43;56.57
72802;BME280;61891;55.818;37.084;2023-06-26T01:15:46;99388.03;;;16.43;56.64
72802;BME280;61891;55.818;37.084;2023-06-26T01:18:12;99403.88;;;16.51;56.57
72802;BME280;61891;55.818;37.084;2023-06-26T01:20:41;99397.06;;;16.42;56.44
72802;BME280;61891;55.818;37.084;2023-06-26T01:23:20;99349.28;;;16.13;57.20
72802;BME280;61891;55.818;37.084;2023-06-26T01:28:35;99411.69;;;16.39;57.05
72802;BME280;61891;55.818;37.084;2023-06-26T01:31:04;99360.19;;;16.11;57.36
72802;BME280;61891;55.818;37.084;2023-06-26T01:33:31;99410.03;;;16.32;57.08
72802;BME280;61891;55.818;37.084;2023-06-26T01:35:58;99407.75;;;16.29;57.24
72802;BME280;61891;55.818;37.084;2023-06-26T01:38:24;99417.00;;;16.26;57.46
72802;BME280;61891;55.818;37.084;2023-06-26T01:40:52;99389.81;;;16.16;57.54
72802;BME280;61891;55.818;37.084;2023-06-26T01:43:41;99412.28;;;16.28;57.99
72802;BME280;61891;55.818;37.084;2023-06-26T01:46:18;99363.66;;;15.98;57.88
72802;BME280;61891;55.818;37.084;2023-06-26T01:51:34;99375.78;;;16.01;57.62
72802;BME280;61891;55.818;37.084;2023-06-26T01:54:01;99375.41;;;16.10;57.62
72802;BME280;61891;55.818;37.084;2023-06-26T01:56:28;99418.66;;;16.27;57.51
72802;BME280;61891;55.818;37.084;2023-06-26T01:58:55;99398.88;;;16.22;57.55
72802;BME280;61891;55.818;37.084;2023-06-26T02:01:22;99389.81;;;16.09;57.75
72802;BME280;61891;55.818;37.084;2023-06-26T02:03:48;99385.25;;;16.03;58.11
72802;BME280;61891;55.818;37.084;2023-06-26T02:06:14;99419.88;;;16.25;58.14
72802;BME280;61891;55.818;37.084;2023-06-26T02:08:40;99408.75;;;16.15;58.18
72802;BME280;61891;55.818;37.084;2023-06-26T02:11:06;99402.78;;;16.13;58.16
72802;BME280;61891;55.818;37.084;2023-06-26T02:13:32;99428.53;;;16.27;58.09
72802;BME280;61891;55.818;37.084;2023-06-26T02:15:58;99407.72;;;16.16;58.06
72802;BME280;61891;55.818;37.084;2023-06-26T02:18:24;99399.91;;;16.14;58.04
72802;BME280;61891;55.818;37.084;2023-06-26T02:20:50;99411.63;;;16.20;58.19
72802;BME280;61891;55.818;37.084;2023-06-26T02:23:16;99398.66;;;16.17;57.84
72802;BME280;61891;55.818;37.084;2023-06-26T02:25:41;99413.09;;;16.29;57.93
72802;BME280;61891;55.818;37.084;2023-06-26T02:28:09;99416.41;;;16.31;58.07
72802;BME280;61891;55.818;37.084;2023-06-26T02:30:35;99404.22;;;16.22;57.81
72802;BME280;61891;55.818;37.084;2023-06-26T02:33:01;99412.06;;;16.30;58.20
72802;BME280;61891;55.818;37.084;2023-06-26T02:35:27;99371.28;;;16.01;58.29
72802;BME280;61891;55.818;37.084;2023-06-26T02:37:52;99418.03;;;16.32;58.20
72802;BME280;61891;55.818;37.084;2023-06-26T02:40:18;99413.09;;;16.29;58.53
72802;BME280;61891;55.818;37.084;2023-06-26T02:42:44;99430.59;;;16.38;58.37
72802;BME280;61891;55.818;37.084;2023-06-26T02:45:11;99419.50;;;16.41;59.25
72802;BME280;61891;55.818;37.084;2023-06-26T02:47:36;99417.25;;;16.44;58.61
72802;BME280;61891;55.818;37.084;2023-06-26T02:50:06;99418.69;;;16.47;57.92
72802;BME280;61891;55.818;37.084;2023-06-26T02:52:52;99416.63;;;16.49;58.37
72802;BME280;61891;55.818;37.084;2023-06-26T02:55:20;99412.50;;;16.47;58.33
72802;BME280;61891;55.818;37.084;2023-06-26T02:57:47;99409.66;;;16.55;58.64
72802;BME280;61891;55.818;37.084;2023-06-26T03:00:13;99419.13;;;16.64;58.72
72802;BME280;61891;55.818;37.084;2023-06-26T03:02:45;99423.69;;;16.70;59.52
72802;BME280;61891;55.818;37.084;2023-06-26T03:05:15;99420.19;;;16.76;58.51
72802;BME280;61891;55.818;37.084;2023-06-26T03:07:41;99394.88;;;16.72;58.37
72802;BME280;61891;55.818;37.084;2023-06-26T03:10:07;99416.28;;;16.92;59.74
72802;BME280;61891;55.818;37.084;2023-06-26T03:12:33;99427.19;;;16.97;58.63
72802;BME280;61891;55.818;37.084;2023-06-26T03:14:58;99390.75;;;16.89;58.36
72802;BME280;61891;55.818;37.084;2023-06-26T03:17:24;99395.88;;;17.04;58.42
72802;BME280;61891;55.818;37.084;2023-06-26T03:19:53;99399.38;;;17.11;58.36
72802;BME280;61891;55.818;37.084;2023-06-26T03:22:21;99413.78;;;17.30;58.05
72802;BME280;61891;55.818;37.084;2023-06-26T03:24:47;99409.22;;;17.37;58.09
72802;BME280;61891;55.818;37.084;2023-06-26T03:27:13;99382.03;;;17.33;57.98
72802;BME280;61891;55.818;37.084;2023-06-26T03:29:39;99399.28;;;17.57;57.64
72802;BME280;61891;55.818;37.084;2023-06-26T03:32:06;99394.72;;;17.64;57.76
72802;BME280;61891;55.818;37.084;2023-06-26T03:34:33;99402.13;;;17.76;57.83
72802;BME280;61891;55.818;37.084;2023-06-26T03:36:59;99399.81;;;17.86;57.82
72802;BME280;61891;55.818;37.084;2023-06-26T03:39:25;99403.50;;;17.91;57.57
72802;BME280;61891;55.818;37.084;2023-06-26T03:41:51;99401.22;;;17.95;57.36
72802;BME280;61891;55.818;37.084;2023-06-26T03:44:19;99400.75;;;18.04;57.19
72802;BME280;61891;55.818;37.084;2023-06-26T03:46:47;99397.41;;;18.16;57.34
72802;BME280;61891;55.818;37.084;2023-06-26T03:49:13;99397.53;;;18.27;57.07
72802;BME280;61891;55.818;37.084;2023-06-26T03:51:39;99405.50;;;18.41;57.45
72802;BME280;61891;55.818;37.084;2023-06-26T03:54:05;99375.31;;;18.45;56.37
72802;BME280;61891;55.818;37.084;2023-06-26T03:56:30;99395.59;;;18.73;56.34
72802;BME280;61891;55.818;37.084;2023-06-26T03:58:56;99401.84;;;18.91;56.23
72802;BME280;61891;55.818;37.084;2023-06-26T04:01:22;99391.38;;;19.08;55.75
72802;BME280;61891;55.818;37.084;2023-06-26T04:03:49;99386.00;;;19.26;55.31
72802;BME280;61891;55.818;37.084;2023-06-26T04:06:15;99386.41;;;19.48;55.12
72802;BME280;61891;55.818;37.084;2023-06-26T04:08:41;99393.38;;;19.74;54.76
72802;BME280;61891;55.818;37.084;2023-06-26T04:11:06;99391.25;;;19.94;54.99
72802;BME280;61891;55.818;37.084;2023-06-26T04:13:32;99392.63;;;20.15;54.39
72802;BME280;61891;55.818;37.084;2023-06-26T04:15:58;99393.63;;;20.33;54.35
72802;BME280;61891;55.818;37.084;2023-06-26T04:18:23;99386.50;;;20.38;54.21
72802;BME280;61891;55.818;37.084;2023-06-26T04:21:08;99392.78;;;20.50;54.51
72802;BME280;61891;55.818;37.084;2023-06-26T04:23:35;99386.00;;;20.59;53.51
72802;BME280;61891;55.818;37.084;2023-06-26T04:26:01;99384.13;;;20.60;53.69
72802;BME280;61891;55.818;37.084;2023-06-26T04:28:28;99386.38;;;20.75;53.75
72802;BME280;61891;55.818;37.084;2023-06-26T04:30:54;99368.94;;;20.77;53.51
72802;BME280;61891;55.818;37.084;2023-06-26T04:33:20;99387.03;;;21.00;53.93
72802;BME280;61891;55.818;37.084;2023-06-26T04:35:45;99388.78;;;21.18;53.18
72802;BME280;61891;55.818;37.084;2023-06-26T04:38:15;99383.66;;;21.28;52.80
72802;BME280;61891;55.818;37.084;2023-06-26T04:40:41;99384.47;;;21.40;52.20
72802;BME280;61891;55.818;37.084;2023-06-26T04:43:07;99386.66;;;21.55;52.65
72802;BME280;61891;55.818;37.084;2023-06-26T04:45:33;99390.84;;;21.74;51.66
72802;BME280;61891;55.818;37.084;2023-06-26T04:47:58;99391.72;;;21.92;51.94
72802;BME280;61891;55.818;37.084;2023-06-26T04:50:25;99371.06;;;21.97;51.33
72802;BME280;61891;55.818;37.084;2023-06-26T04:52:51;99385.63;;;22.25;51.17
72802;BME280;61891;55.818;37.084;2023-06-26T04:55:17;99351.41;;;22.13;50.20
72802;BME280;61891;55.818;37.084;2023-06-26T04:57:43;99381.84;;;22.54;50.40
72802;BME280;61891;55.818;37.084;2023-06-26T05:00:09;99375.31;;;22.67;49.75
72802;BME280;61891;55.818;37.084;2023-06-26T05:02:36;99384.00;;;22.86;48.84
72802;BME280;61891;55.818;37.084;2023-06-26T05:05:02;99380.16;;;22.98;48.60
72802;BME280;61891;55.818;37.084;2023-06-26T05:07:30;99377.84;;;23.07;47.82
72802;BME280;61891;55.818;37.084;2023-06-26T05:09:55;99391.59;;;23.22;46.69
72802;BME280;61891;55.818;37.084;2023-06-26T05:12:21;99375.03;;;23.19;47.15
72802;BME280;61891;55.818;37.084;2023-06-26T05:14:47;99372.09;;;23.20;46.60
72802;BME280;61891;55.818;37.084;2023-06-26T05:17:15;99387.66;;;23.30;46.52
72802;BME280;61891;55.818;37.084;2023-06-26T05:19:42;99380.91;;;23.32;46.16
72802;BME280;61891;55.818;37.084;2023-06-26T05:22:08;99382.25;;;23.30;46.27
72802;BME280;61891;55.818;37.084;2023-06-26T05:24:35;99347.69;;;23.15;45.28
72802;BME280;61891;55.818;37.084;2023-06-26T05:27:02;99392.28;;;23.51;45.60
72802;BME280;61891;55.818;37.084;2023-06-26T05:29:32;99384.66;;;23.48;45.01
72802;BME280;61891;55.818;37.084;2023-06-26T05:31:59;99375.91;;;23.41;44.05
72802;BME280;61891;55.818;37.084;2023-06-26T05:34:26;99382.50;;;23.50;43.65
72802;BME280;61891;55.818;37.084;2023-06-26T05:36:58;99383.50;;;23.61;43.07
72802;BME280;61891;55.818;37.084;2023-06-26T05:39:25;99362.47;;;23.68;43.16
72802;BME280;61891;55.818;37.084;2023-06-26T05:41:51;99371.03;;;23.82;42.80
72802;BME280;61891;55.818;37.084;2023-06-26T05:44:17;99375.50;;;23.93;42.18
72802;BME280;61891;55.818;37.084;2023-06-26T05:46:45;99355.91;;;23.86;41.48
72802;BME280;61891;55.818;37.084;2023-06-26T05:49:11;99381.94;;;24.14;41.86
72802;BME280;61891;55.818;37.084;2023-06-26T05:51:37;99379.59;;;24.22;41.45
72802;BME280;61891;55.818;37.084;2023-06-26T05:54:03;99383.50;;;24.31;40.71
72802;BME280;61891;55.818;37.084;2023-06-26T05:56:30;99367.34;;;24.41;40.71
72802;BME280;61891;55.818;37.084;2023-06-26T05:58:56;99379.50;;;24.66;40.68
72802;BME280;61891;55.818;37.084;2023-06-26T06:01:22;99382.63;;;24.85;40.61
72802;BME280;61891;55.818;37.084;2023-06-26T06:03:49;99387.00;;;24.91;39.95
72802;BME280;61891;55.818;37.084;2023-06-26T06:06:14;99378.91;;;24.96;39.63
72802;BME280;61891;55.818;37.084;2023-06-26T06:08:41;99364.81;;;24.94;39.00
72802;BME280;61891;55.818;37.084;2023-06-26T06:11:07;99368.53;;;25.20;38.50
72802;BME280;61891;55.818;37.084;2023-06-26T06:13:33;99373.47;;;25.28;38.75
72802;BME280;61891;55.818;37.084;2023-06-26T06:15:59;99367.03;;;25.44;38.11
72802;BME280;61891;55.818;37.084;2023-06-26T06:18:26;99371.66;;;25.49;38.23
72802;BME280;61891;55.818;37.084;2023-06-26T06:20:51;99342.28;;;25.35;38.27
72802;BME280;61891;55.818;37.084;2023-06-26T06:23:17;99360.56;;;25.50;38.21
72802;BME280;61891;55.818;37.084;2023-06-26T06:25:43;99370.63;;;25.60;37.68
72802;BME280;61891;55.818;37.084;2023-06-26T06:28:09;99362.19;;;25.51;38.04
72802;BME280;61891;55.818;37.084;2023-06-26T06:30:35;99352.41;;;25.50;37.44
72802;BME280;61891;55.818;37.084;2023-06-26T06:33:01;99363.38;;;25.65;37.20
72802;BME280;61891;55.818;37.084;2023-06-26T06:35:27;99353.34;;;25.71;37.73
72802;BME280;61891;55.818;37.084;2023-06-26T06:37:53;99340.56;;;25.66;36.58
72802;BME280;61891;55.818;37.084;2023-06-26T06:40:18;99366.13;;;25.81;36.97
72802;BME280;61891;55.818;37.084;2023-06-26T06:42:44;99361.25;;;25.83;36.16
72802;BME280;61891;55.818;37.084;2023-06-26T06:45:10;99353.94;;;25.88;36.39
72802;BME280;61891;55.818;37.084;2023-06-26T06:47:36;99338.22;;;25.95;36.39
72802;BME280;61891;55.818;37.084;2023-06-26T06:50:02;99362.44;;;26.12;36.92
72802;BME280;61891;55.818;37.084;2023-06-26T06:52:38;99351.50;;;25.87;36.07
72802;BME280;61891;55.818;37.084;2023-06-26T06:55:06;99353.63;;;25.80;36.62
72802;BME280;61891;55.818;37.084;2023-06-26T06:57:39;99361.78;;;25.80;36.13
72802;BME280;61891;55.818;37.084;2023-06-26T07:00:09;99357.16;;;25.80;36.23
72802;BME280;61891;55.818;37.084;2023-06-26T07:02:39;99338.75;;;25.92;35.97
72802;BME280;61891;55.818;37.084;2023-06-26T07:05:05;99355.41;;;26.26;35.81
72802;BME280;61891;55.818;37.084;2023-06-26T07:07:33;99346.19;;;26.27;35.90
72802;BME280;61891;55.818;37.084;2023-06-26T07:10:01;99344.00;;;26.19;35.42
72802;BME280;61891;55.818;37.084;2023-06-26T07:12:32;99354.03;;;26.14;35.03
72802;BME280;61891;55.818;37.084;2023-06-26T07:15:03;99339.84;;;25.96;34.62
72802;BME280;61891;55.818;37.084;2023-06-26T07:17:33;99356.81;;;26.44;34.32
72802;BME280;61891;55.818;37.084;2023-06-26T07:20:01;99350.03;;;26.82;34.24
72802;BME280;61891;55.818;37.084;2023-06-26T07:22:28;99329.59;;;26.95;34.18
72802;BME280;61891;55.818;37.084;2023-06-26T07:24:53;99332.88;;;26.87;34.20
72802;BME280;61891;55.818;37.084;2023-06-26T07:27:19;99342.41;;;26.79;33.43
72802;BME280;61891;55.818;37.084;2023-06-26T07:29:46;99342.38;;;26.94;33.46
72802;BME280;61891;55.818;37.084;2023-06-26T07:32:12;99320.63;;;26.94;33.50
72802;BME280;61891;55.818;37.084;2023-06-26T07:34:38;99329.34;;;27.02;33.25
72802;BME280;61891;55.818;37.084;2023-06-26T07:37:04;99331.25;;;27.06;33.14
72802;BME280;61891;55.818;37.084;2023-06-26T07:39:30;99331.72;;;27.28;33.11
72802;BME280;61891;55.818;37.084;2023-06-26T07:41:56;99343.63;;;27.48;32.93
72802;BME280;61891;55.818;37.084;2023-06-26T07:44:25;99344.44;;;27.64;31.41
72802;BME280;61891;55.818;37.084;2023-06-26T07:46:50;99333.00;;;27.62;31.18
72802;BME280;61891;55.818;37.084;2023-06-26T07:49:16;99331.88;;;27.68;31.83
72802;BME280;61891;55.818;37.084;2023-06-26T07:51:42;99326.38;;;27.78;30.49
72802;BME280;61891;55.818;37.084;2023-06-26T07:54:08;99332.31;;;27.90;30.74
72802;BME280;61891;55.818;37.084;2023-06-26T07:56:55;99314.31;;;27.94;29.30
72802;BME280;61891;55.818;37.084;2023-06-26T07:59:22;99334.84;;;28.20;30.31
72802;BME280;61891;55.818;37.084;2023-06-26T08:01:50;99306.84;;;28.10;29.36
72802;BME280;61891;55.818;37.084;2023-06-26T08:04:20;99325.31;;;28.23;29.95
72802;BME280;61891;55.818;37.084;2023-06-26T08:06:51;99333.66;;;28.37;28.64
72802;BME280;61891;55.818;37.084;2023-06-26T08:09:18;99341.88;;;28.32;29.22
72802;BME280;61891;55.818;37.084;2023-06-26T08:11:45;99323.31;;;28.34;29.56
72802;BME280;61891;55.818;37.084;2023-06-26T08:14:11;99321.63;;;28.43;29.38
72802;BME280;61891;55.818;37.084;2023-06-26T08:16:41;99325.03;;;28.24;28.63
72802;BME280;61891;55.818;37.084;2023-06-26T08:19:08;99319.44;;;28.01;29.65
72802;BME280;61891;55.818;37.084;2023-06-26T08:21:34;99324.31;;;28.04;29.71
72802;BME280;61891;55.818;37.084;2023-06-26T08:24:00;99319.69;;;28.04;29.58
72802;BME280;61891;55.818;37.084;2023-06-26T08:26:25;99329.03;;;28.37;29.88
72802;BME280;61891;55.818;37.084;2023-06-26T08:28:51;99330.16;;;28.65;29.18
72802;BME280;61891;55.818;37.084;2023-06-26T08:31:17;99332.84;;;28.70;28.78
72802;BME280;61891;55.818;37.084;2023-06-26T08:33:43;99324.13;;;28.68;29.36
72802;BME280;61891;55.818;37.084;2023-06-26T08:36:09;99317.13;;;28.57;28.77
72802;BME280;61891;55.818;37.084;2023-06-26T08:38:35;99322.63;;;28.52;28.51
72802;BME280;61891;55.818;37.084;2023-06-26T08:41:01;99320.22;;;28.79;28.67
72802;BME280;61891;55.818;37.084;2023-06-26T08:43:26;99323.78;;;28.75;28.65
72802;BME280;61891;55.818;37.084;2023-06-26T08:45:53;99328.28;;;28.95;28.35
72802;BME280;61891;55.818;37.084;2023-06-26T08:48:20;99300.84;;;29.76;28.00
72802;BME280;61891;55.818;37.084;2023-06-26T08:50:52;99299.66;;;30.71;26.18
72802;BME280;61891;55.818;37.084;2023-06-26T08:53:27;99328.28;;;31.39;25.00
72802;BME280;61891;55.818;37.084;2023-06-26T08:55:57;99326.66;;;31.38;23.76
72802;BME280;61891;55.818;37.084;2023-06-26T08:58:23;99325.31;;;31.90;24.08
72802;BME280;61891;55.818;37.084;2023-06-26T09:00:49;99315.97;;;31.64;24.52
72802;BME280;61891;55.818;37.084;2023-06-26T09:03:16;99294.75;;;31.01;25.06
72802;BME280;61891;55.818;37.084;2023-06-26T09:05:42;99305.25;;;30.47;25.12
72802;BME280;61891;55.818;37.084;2023-06-26T09:08:08;99309.81;;;30.01;25.32
72802;BME280;61891;55.818;37.084;2023-06-26T09:10:34;99319.66;;;29.78;25.76
72802;BME280;61891;55.818;37.084;2023-06-26T09:13:00;99323.75;;;29.80;26.03
72802;BME280;61891;55.818;37.084;2023-06-26T09:15:37;99315.06;;;30.67;25.04
72802;BME280;61891;55.818;37.084;2023-06-26T09:18:04;99315.59;;;31.57;25.56
72802;BME280;61891;55.818;37.084;2023-06-26T09:20:30;99304.25;;;31.22;24.92
72802;BME280;61891;55.818;37.084;2023-06-26T09:23:01;99293.84;;;30.59;25.09
72802;BME280;61891;55.818;37.084;2023-06-26T09:25:28;99312.38;;;29.92;25.27
72802;BME280;61891;55.818;37.084;2023-06-26T09:27:55;99309.72;;;29.44;25.26
72802;BME280;61891;55.818;37.084;2023-06-26T09:30:21;99296.00;;;29.02;25.73
72802;BME280;61891;55.818;37.084;2023-06-26T09:32:47;99314.09;;;28.93;25.78
72802;BME280;61891;55.818;37.084;2023-06-26T09:35:13;99309.63;;;28.73;25.87
72802;BME280;61891;55.818;37.084;2023-06-26T09:37:39;99307.38;;;28.51;26.08
72802;BME280;61891;55.818;37.084;2023-06-26T09:40:06;99305.03;;;29.69;25.29
72802;BME280;61891;55.818;37.084;2023-06-26T09:42:32;99292.84;;;31.15;24.73
72802;BME280;61891;55.818;37.084;2023-06-26T09:44:59;99286.91;;;32.26;24.18
72802;BME280;61891;55.818;37.084;2023-06-26T09:47:25;99270.31;;;33.24;22.91
72802;BME280;61891;55.818;37.084;2023-06-26T09:49:51;99293.72;;;33.61;23.78
72802;BME280;61891;55.818;37.084;2023-06-26T09:52:18;99298.56;;;32.77;22.87
72802;BME280;61891;55.818;37.084;2023-06-26T09:54:45;99294.41;;;31.98;23.73
72802;BME280;61891;55.818;37.084;2023-06-26T09:57:13;99283.25;;;31.31;23.54
72802;BME280;61891;55.818;37.084;2023-06-26T09:59:42;99291.06;;;30.78;24.20
72802;BME280;61891;55.818;37.084;2023-06-26T10:02:09;99289.63;;;30.15;24.79
72802;BME280;61891;55.818;37.084;2023-06-26T10:04:37;99282.59;;;29.72;24.56
72802;BME280;61891;55.818;37.084;2023-06-26T10:07:08;99293.88;;;29.41;24.70
72802;BME280;61891;55.818;37.084;2023-06-26T10:09:39;99287.41;;;29.13;25.60
72802;BME280;61891;55.818;37.084;2023-06-26T10:12:19;99299.25;;;28.75;25.21
72802;BME280;61891;55.818;37.084;2023-06-26T10:14:45;99300.38;;;28.40;25.65
72802;BME280;61891;55.818;37.084;2023-06-26T10:17:15;99300.56;;;28.09;25.96
72802;BME280;61891;55.818;37.084;2023-06-26T10:19:44;99278.56;;;27.46;26.38
72802;BME280;61891;55.818;37.084;2023-06-26T10:22:12;99292.34;;;27.06;26.57
72802;BME280;61891;55.818;37.084;2023-06-26T10:24:41;99300.53;;;26.80;27.04
72802;BME280;61891;55.818;37.084;2023-06-26T10:27:18;99277.16;;;26.44;27.18
72802;BME280;61891;55.818;37.084;2023-06-26T10:29:55;99304.09;;;26.45;27.39
72802;BME280;61891;55.818;37.084;2023-06-26T10:32:25;99282.84;;;26.22;27.83
72802;BME280;61891;55.818;37.084;2023-06-26T10:34:52;99311.09;;;26.16;27.81
72802;BME280;61891;55.818;37.084;2023-06-26T10:37:18;99270.25;;;25.70;28.17
72802;BME280;61891;55.818;37.084;2023-06-26T10:39:49;99267.22;;;25.61;27.95
72802;BME280;61891;55.818;37.084;2023-06-26T10:42:19;99297.19;;;25.92;28.25
72802;BME280;61891;55.818;37.084;2023-06-26T10:44:46;99303.50;;;26.18;28.18
72802;BME280;61891;55.818;37.084;2023-06-26T10:49:54;99285.31;;;26.54;27.71
72802;BME280;61891;55.818;37.084;2023-06-26T10:52:20;99289.38;;;26.67;27.42
72802;BME280;61891;55.818;37.084;2023-06-26T10:54:46;99279.03;;;26.79;27.95
72802;BME280;61891;55.818;37.084;2023-06-26T10:57:23;99287.19;;;26.74;27.72
72802;BME280;61891;55.818;37.084;2023-06-26T11:00:08;99276.09;;;26.45;27.97
72802;BME280;61891;55.818;37.084;2023-06-26T11:02:51;99270.91;;;26.28;28.33
72802;BME280;61891;55.818;37.084;2023-06-26T11:05:28;99224.91;;;25.81;28.73
72802;BME280;61891;55.818;37.084;2023-06-26T11:08:10;99260.78;;;25.83;28.66
72802;BME280;61891;55.818;37.084;2023-06-26T11:10:53;99274.63;;;25.86;28.56
72802;BME280;61891;55.818;37.084;2023-06-26T11:13:20;99291.19;;;25.80;28.77
72802;BME280;61891;55.818;37.084;2023-06-26T11:15:47;99280.22;;;25.59;28.78
72802;BME280;61891;55.818;37.084;2023-06-26T11:18:14;99264.44;;;25.46;29.21
72802;BME280;61891;55.818;37.084;2023-06-26T11:20:41;99285.66;;;25.59;29.53
72802;BME280;61891;55.818;37.084;2023-06-26T11:23:09;99280.00;;;25.66;29.35
72802;BME280;61891;55.818;37.084;2023-06-26T11:25:36;99281.03;;;25.60;29.10
72802;BME280;61891;55.818;37.084;2023-06-26T11:28:09;99275.59;;;25.55;29.59
72802;BME280;61891;55.818;37.084;2023-06-26T11:30:35;99277.53;;;25.64;29.19
72802;BME280;61891;55.818;37.084;2023-06-26T11:33:08;99285.75;;;25.80;29.41
72802;BME280;61891;55.818;37.084;2023-06-26T11:35:34;99294.47;;;25.92;29.70
72802;BME280;61891;55.818;37.084;2023-06-26T11:38:02;99271.16;;;26.01;29.18
72802;BME280;61891;55.818;37.084;2023-06-26T11:40:37;99281.22;;;26.31;28.85
72802;BME280;61891;55.818;37.084;2023-06-26T11:43:03;99267.91;;;26.60;28.89
72802;BME280;61891;55.818;37.084;2023-06-26T11:45:30;99263.50;;;27.00;28.63
72802;BME280;61891;55.818;37.084;2023-06-26T11:47:57;99269.06;;;27.93;27.94
72802;BME280;61891;55.818;37.084;2023-06-26T11:50:24;99259.75;;;29.20;27.12
72802;BME280;61891;55.818;37.084;2023-06-26T11:52:57;99260.25;;;31.68;24.68
72802;BME280;61891;55.818;37.084;2023-06-26T11:55:25;99259.00;;;34.09;23.97
72802;BME280;61891;55.818;37.084;2023-06-26T11:57:55;99253.91;;;35.89;22.38
72802;BME280;61891;55.818;37.084;2023-06-26T12:00:21;99232.44;;;37.30;21.18
72802;BME280;61891;55.818;37.084;2023-06-26T12:02:47;99236.78;;;38.67;19.79
72802;BME280;61891;55.818;37.084;2023-06-26T12:05:15;99236.84;;;39.88;18.67
72802;BME280;61891;55.818;37.084;2023-06-26T12:07:42;99231.97;;;40.63;17.73
72802;BME280;61891;55.818;37.084;2023-06-26T12:10:10;99215.50;;;41.22;17.77
72802;BME280;61891;55.818;37.084;2023-06-26T12:12:37;99231.19;;;41.91;17.30
72802;BME280;61891;55.818;37.084;2023-06-26T12:15:04;99243.44;;;42.53;16.38
72802;BME280;61891;55.818;37.084;2023-06-26T12:17:31;99233.13;;;43.01;15.93
72802;BME280;61891;55.818;37.084;2023-06-26T12:19:57;99237.44;;;43.50;16.01
72802;BME280;61891;55.818;37.084;2023-06-26T12:22:22;99226.06;;;43.87;15.89
72802;BME280;61891;55.818;37.084;2023-06-26T12:24:48;99234.59;;;44.23;15.33
72802;BME280;61891;55.818;37.084;2023-06-26T12:27:17;99211.91;;;44.49;14.91
72802;BME280;61891;55.818;37.084;2023-06-26T12:29:53;99202.31;;;44.79;13.99
72802;BME280;61891;55.818;37.084;2023-06-26T12:32:21;99226.28;;;45.26;14.37
72802;BME280;61891;55.818;37.084;2023-06-26T12:34:51;99226.22;;;45.51;14.39
72802;BME280;61891;55.818;37.084;2023-06-26T12:37:18;99226.97;;;45.69;14.01
72802;BME280;61891;55.818;37.084;2023-06-26T12:42:15;99200.72;;;44.85;14.26
72802;BME280;61891;55.818;37.084;2023-06-26T12:44:41;99206.59;;;43.25;15.07
72802;BME280;61891;55.818;37.084;2023-06-26T12:47:10;99213.78;;;41.41;15.92
72802;BME280;61891;55.818;37.084;2023-06-26T12:49:39;99217.88;;;39.36;15.77
72802;BME280;61891;55.818;37.084;2023-06-26T12:52:07;99201.63;;;37.44;17.87
72802;BME280;61891;55.818;37.084;2023-06-26T12:54:34;99219.00;;;36.59;18.77
72802;BME280;61891;55.818;37.084;2023-06-26T12:57:00;99206.00;;;35.22;18.97
72802;BME280;61891;55.818;37.084;2023-06-26T12:59:26;99135.53;;;33.73;19.70
72802;BME280;61891;55.818;37.084;2023-06-26T13:01:52;99207.19;;;33.42;20.37
72802;BME280;61891;55.818;37.084;2023-06-26T13:04:18;99204.16;;;32.95;20.96